createdAt,value
2022-08-26T00:00:11.367Z,27.50
2022-08-26T00:03:01.591Z,27.40
2022-08-26T00:05:51.800Z,27.30
2022-08-26T00:08:41.617Z,27.20
2022-08-26T00:11:30.022Z,27.10
2022-08-26T00:14:18.488Z,27.10
2022-08-26T00:17:08.640Z,27.10
2022-08-26T00:19:57.474Z,27.10
2022-08-26T00:22:45.952Z,27.00
2022-08-26T00:25:35.804Z,26.90
2022-08-26T00:28:31.010Z,26.90
2022-08-26T00:31:19.580Z,26.90
2022-08-26T00:34:09.935Z,26.80
2022-08-26T00:36:59.805Z,26.80
2022-08-26T00:39:48.600Z,26.70
2022-08-26T00:42:38.765Z,26.70
2022-08-26T00:45:46.813Z,26.60
2022-08-26T00:48:35.635Z,26.60
2022-08-26T00:51:29.960Z,26.50
2022-08-26T00:54:18.597Z,26.50
2022-08-26T00:57:16.449Z,26.40
2022-08-26T01:00:10.563Z,26.30
2022-08-26T01:03:00.756Z,26.30
2022-08-26T01:05:49.291Z,26.20
2022-08-26T01:08:39.503Z,26.10
2022-08-26T01:11:27.908Z,26.00
2022-08-26T01:14:16.622Z,26.00
2022-08-26T01:17:09.146Z,25.90
2022-08-26T01:20:01.280Z,25.80
2022-08-26T01:22:56.055Z,25.80
2022-08-26T01:25:46.694Z,25.70
2022-08-26T01:28:35.778Z,25.70
2022-08-26T01:31:26.719Z,25.70
2022-08-26T01:34:18.702Z,25.70
2022-08-26T01:37:11.737Z,25.70
2022-08-26T01:40:07.420Z,25.60
2022-08-26T01:42:56.180Z,25.70
2022-08-26T01:45:44.897Z,25.70
2022-08-26T01:48:33.995Z,25.70
2022-08-26T01:51:24.327Z,25.70
2022-08-26T01:54:13.855Z,25.70
2022-08-26T01:57:04.074Z,25.70
2022-08-26T01:59:52.555Z,25.70
2022-08-26T02:02:41.649Z,25.70
2022-08-26T02:05:32.036Z,25.70
2022-08-26T02:08:24.576Z,25.70
2022-08-26T02:11:13.505Z,25.70
2022-08-26T02:14:06.491Z,25.70
2022-08-26T02:16:55.320Z,25.70
2022-08-26T02:19:50.167Z,25.70
2022-08-26T02:22:40.383Z,25.60
2022-08-26T02:25:32.084Z,25.60
2022-08-26T02:28:20.627Z,25.60
2022-08-26T02:31:10.645Z,25.60
2022-08-26T02:34:10.791Z,25.60
2022-08-26T02:36:59.517Z,25.40
2022-08-26T02:39:48.040Z,25.40
2022-08-26T02:42:37.480Z,25.30
2022-08-26T02:45:27.460Z,25.20
2022-08-26T02:48:19.604Z,25.20
2022-08-26T02:51:08.093Z,25.10
2022-08-26T02:53:56.890Z,25.00
2022-08-26T02:56:45.742Z,24.90
2022-08-26T02:59:35.942Z,24.80
2022-08-26T03:02:24.617Z,24.80
2022-08-26T03:05:15.419Z,24.70
2022-08-26T03:08:05.108Z,24.70
2022-08-26T03:10:53.590Z,24.70
2022-08-26T03:13:42.228Z,24.60
2022-08-26T03:16:33.673Z,24.60
2022-08-26T03:19:22.889Z,24.60
2022-08-26T03:22:14.501Z,24.50
2022-08-26T03:25:03.592Z,24.50
2022-08-26T03:27:52.330Z,24.50
2022-08-26T03:30:39.875Z,24.50
2022-08-26T03:33:34.008Z,24.50
2022-08-26T03:36:22.628Z,24.60
2022-08-26T03:39:14.476Z,24.50
2022-08-26T03:42:03.025Z,24.50
2022-08-26T03:44:52.042Z,24.50
2022-08-26T03:47:40.598Z,24.40
2022-08-26T03:50:29.356Z,24.40
2022-08-26T03:53:23.772Z,24.30
2022-08-26T03:56:14.484Z,24.30
2022-08-26T03:59:02.927Z,24.20
2022-08-26T04:01:51.486Z,24.20
2022-08-26T04:04:40.221Z,24.10
2022-08-26T04:07:28.767Z,24.10
2022-08-26T04:10:28.582Z,24.10
2022-08-26T04:13:19.217Z,24.10
2022-08-26T04:16:08.019Z,24.10
2022-08-26T04:18:59.056Z,24.20
2022-08-26T04:21:48.278Z,24.20
2022-08-26T04:24:39.510Z,24.30
2022-08-26T04:27:28.037Z,24.30
2022-08-26T04:30:18.186Z,24.40
2022-08-26T04:33:13.025Z,24.40
2022-08-26T04:36:02.595Z,24.40
2022-08-26T04:38:51.515Z,24.40
2022-08-26T04:41:41.938Z,24.40
2022-08-26T04:44:31.107Z,24.40
2022-08-26T04:47:21.013Z,24.50
2022-08-26T04:50:10.956Z,24.50
2022-08-26T04:52:59.860Z,24.50
2022-08-26T04:55:48.459Z,24.50
2022-08-26T04:58:37.331Z,24.50
2022-08-26T05:01:25.910Z,24.50
2022-08-26T05:04:16.305Z,24.50
2022-08-26T05:07:08.011Z,24.40
2022-08-26T05:09:58.189Z,24.40
2022-08-26T05:12:46.670Z,24.40
2022-08-26T05:15:35.723Z,24.40
2022-08-26T05:18:25.828Z,24.40
2022-08-26T05:21:20.177Z,24.40
2022-08-26T05:24:10.158Z,24.40
2022-08-26T05:26:58.961Z,24.40
2022-08-26T05:29:54.632Z,24.40
2022-08-26T05:32:43.763Z,24.50
2022-08-26T05:35:34.141Z,24.50
2022-08-26T05:38:24.045Z,24.50
2022-08-26T05:41:18.929Z,24.50
2022-08-26T05:44:10.397Z,24.60
2022-08-26T05:46:58.858Z,24.60
2022-08-26T05:49:51.541Z,24.70
2022-08-26T05:52:40.328Z,24.70
2022-08-26T05:55:30.270Z,24.80
2022-08-26T05:58:20.143Z,24.80
2022-08-26T06:01:10.627Z,24.80
2022-08-26T06:04:02.019Z,24.90
2022-08-26T06:06:50.588Z,25.10
2022-08-26T06:09:39.118Z,25.20
2022-08-26T06:12:28.905Z,25.20
2022-08-26T06:15:17.644Z,25.30
2022-08-26T06:18:06.792Z,25.30
2022-08-26T06:20:57.663Z,25.40
2022-08-26T06:24:05.145Z,25.40
2022-08-26T06:26:54.977Z,25.30
2022-08-26T06:29:44.973Z,25.20
2022-08-26T06:32:33.436Z,25.10
2022-08-26T06:35:21.947Z,25.00
2022-08-26T06:38:10.960Z,24.90
2022-08-26T06:40:59.883Z,24.80
2022-08-26T06:43:48.514Z,24.80
2022-08-26T06:46:38.328Z,24.80
2022-08-26T06:49:27.780Z,24.80
2022-08-26T06:52:21.179Z,24.90
2022-08-26T06:55:12.952Z,24.90
2022-08-26T06:58:01.452Z,24.90
2022-08-26T07:00:52.997Z,24.80
2022-08-26T07:03:42.806Z,25.10
2022-08-26T07:06:38.050Z,25.20
2022-08-26T07:09:30.305Z,25.20
2022-08-26T07:12:19.084Z,25.30
2022-08-26T07:15:08.602Z,25.40
2022-08-26T07:17:57.146Z,25.60
2022-08-26T07:20:47.097Z,25.90
2022-08-26T07:23:36.248Z,26.10
2022-08-26T07:26:26.409Z,26.30
2022-08-26T07:29:17.289Z,26.50
2022-08-26T07:32:06.480Z,26.70
2022-08-26T07:34:54.965Z,26.90
2022-08-26T07:37:44.787Z,27.10
2022-08-26T07:40:34.025Z,27.20
2022-08-26T07:43:22.589Z,27.30
2022-08-26T07:46:16.466Z,27.40
2022-08-26T07:49:05.718Z,27.60
2022-08-26T07:51:55.639Z,27.60
2022-08-26T07:54:45.453Z,27.70
2022-08-26T07:57:34.540Z,27.80
2022-08-26T08:00:23.566Z,27.90
2022-08-26T08:03:12.588Z,27.90
2022-08-26T08:06:02.596Z,28.00
2022-08-26T08:08:51.652Z,28.00
2022-08-26T08:11:41.628Z,28.00
2022-08-26T08:14:32.000Z,28.00
2022-08-26T08:17:20.495Z,28.00
2022-08-26T08:20:11.069Z,28.00
2022-08-26T08:22:59.826Z,28.10
2022-08-26T08:25:49.076Z,28.10
2022-08-26T08:28:39.096Z,28.20
2022-08-26T08:31:56.176Z,28.20
2022-08-26T08:34:38.358Z,28.20
2022-08-26T08:37:26.872Z,28.20
2022-08-26T08:40:18.088Z,28.20
2022-08-26T08:43:08.128Z,28.20
2022-08-26T08:46:00.238Z,28.30
2022-08-26T08:48:52.198Z,28.30
2022-08-26T08:51:46.795Z,28.40
2022-08-26T08:54:35.312Z,28.40
2022-08-26T08:57:29.068Z,28.40
2022-08-26T09:00:19.330Z,28.50
2022-08-26T09:03:13.284Z,28.50
2022-08-26T09:06:01.779Z,28.60
2022-08-26T09:08:51.441Z,28.80
2022-08-26T09:11:39.900Z,28.90
2022-08-26T09:14:29.173Z,29.00
2022-08-26T09:17:28.004Z,29.20
2022-08-26T09:20:26.392Z,29.30
2022-08-26T09:23:15.098Z,29.50
2022-08-26T09:26:15.593Z,29.60
2022-08-26T09:29:08.687Z,29.80
2022-08-26T09:32:19.339Z,30.00
2022-08-26T09:35:12.099Z,30.20
2022-08-26T09:38:02.003Z,30.30
2022-08-26T09:40:58.965Z,30.50
2022-08-26T09:44:07.821Z,30.70
2022-08-26T09:47:05.064Z,30.80
2022-08-26T09:50:00.073Z,31.00
2022-08-26T09:52:48.805Z,31.10
2022-08-26T09:55:41.853Z,31.20
2022-08-26T09:58:34.737Z,31.30
2022-08-26T10:01:31.341Z,31.30
2022-08-26T10:04:22.990Z,31.40
2022-08-26T10:07:11.530Z,31.40
2022-08-26T10:10:00.030Z,31.40
2022-08-26T10:13:05.519Z,31.40
2022-08-26T10:16:01.302Z,31.40
2022-08-26T10:18:56.865Z,31.40
2022-08-26T10:21:54.063Z,31.30
2022-08-26T10:24:47.721Z,31.30
2022-08-26T10:27:50.972Z,31.40
2022-08-26T10:30:47.924Z,31.40
2022-08-26T10:33:36.406Z,31.50
2022-08-26T10:37:10.520Z,31.60
2022-08-26T10:39:56.944Z,31.60
2022-08-26T10:42:50.995Z,31.70
2022-08-26T10:45:48.832Z,31.80
2022-08-26T10:48:43.643Z,32.00
2022-08-26T10:51:36.477Z,32.20
2022-08-26T10:54:28.649Z,32.30
2022-08-26T10:57:20.337Z,32.50
2022-08-26T11:00:27.596Z,32.50
2022-08-26T11:03:36.406Z,32.60
2022-08-26T11:06:28.183Z,32.60
2022-08-26T11:09:44.751Z,32.60
2022-08-26T11:12:57.244Z,32.70
2022-08-26T11:16:01.267Z,32.80
2022-08-26T11:18:54.649Z,32.90
2022-08-26T11:21:49.505Z,33.00
2022-08-26T11:25:02.499Z,33.10
2022-08-26T11:27:57.636Z,33.20
2022-08-26T11:30:56.968Z,33.30
2022-08-26T11:33:50.989Z,33.40
2022-08-26T11:36:59.686Z,33.60
2022-08-26T11:39:54.475Z,33.60
2022-08-26T11:42:45.287Z,33.70
2022-08-26T11:45:36.105Z,33.70
2022-08-26T11:48:33.167Z,33.90
2022-08-26T11:51:25.142Z,33.90
2022-08-26T11:54:15.972Z,34.00
2022-08-26T11:57:09.407Z,33.90
2022-08-26T12:00:00.158Z,33.80
2022-08-26T12:02:49.021Z,33.70
2022-08-26T12:05:45.206Z,33.70
2022-08-26T12:08:36.650Z,33.80
2022-08-26T12:11:26.752Z,33.90
2022-08-26T12:14:19.318Z,33.90
2022-08-26T12:17:24.075Z,34.00
2022-08-26T12:20:45.684Z,34.00
2022-08-26T12:23:43.282Z,34.00
2022-08-26T12:26:33.535Z,34.00
2022-08-26T12:29:27.584Z,34.10
2022-08-26T12:32:17.707Z,34.10
2022-08-26T12:35:08.817Z,34.10
2022-08-26T12:37:57.590Z,34.10
2022-08-26T12:40:47.630Z,34.10
2022-08-26T12:43:42.407Z,34.20
2022-08-26T12:46:30.974Z,34.20
2022-08-26T12:49:20.009Z,34.30
2022-08-26T12:52:10.558Z,34.40
2022-08-26T12:55:01.076Z,34.50
2022-08-26T12:57:51.125Z,34.60
2022-08-26T13:00:41.177Z,34.70
2022-08-26T13:03:43.745Z,34.70
2022-08-26T13:06:32.532Z,34.80
2022-08-26T13:09:31.306Z,34.90
2022-08-26T13:12:30.979Z,35.00
2022-08-26T13:15:20.846Z,35.20
2022-08-26T13:18:09.290Z,35.30
2022-08-26T13:20:57.772Z,35.40
2022-08-26T13:23:47.460Z,35.50
2022-08-26T13:26:36.171Z,35.60
2022-08-26T13:29:24.656Z,35.80
2022-08-26T13:32:14.823Z,35.90
2022-08-26T13:35:05.599Z,35.90
2022-08-26T13:37:56.719Z,36.00
2022-08-26T13:40:45.262Z,36.00
2022-08-26T13:43:34.151Z,36.00
2022-08-26T13:46:22.862Z,35.90
2022-08-26T13:49:12.777Z,35.70
2022-08-26T13:52:03.592Z,35.60
2022-08-26T13:54:52.087Z,35.50
2022-08-26T13:57:42.407Z,35.40
2022-08-26T14:00:33.361Z,35.30
2022-08-26T14:03:22.780Z,35.30
2022-08-26T14:06:12.841Z,35.20
2022-08-26T14:09:01.361Z,35.10
2022-08-26T14:11:54.392Z,35.00
2022-08-26T14:14:43.489Z,35.00
2022-08-26T14:17:32.728Z,34.90
2022-08-26T14:20:24.793Z,34.90
2022-08-26T14:23:15.304Z,34.90
2022-08-26T14:26:08.014Z,34.90
2022-08-26T14:28:56.656Z,34.90
2022-08-26T14:31:45.374Z,34.80
2022-08-26T14:34:33.958Z,34.80
2022-08-26T14:37:22.790Z,34.80
2022-08-26T14:40:13.965Z,34.90
2022-08-26T14:43:02.461Z,34.90
2022-08-26T14:45:52.205Z,35.00
2022-08-26T14:48:40.757Z,35.10
2022-08-26T14:51:29.244Z,35.30
2022-08-26T14:54:20.779Z,35.40
2022-08-26T14:57:12.438Z,35.50
2022-08-26T15:00:00.943Z,35.60
2022-08-26T15:02:49.639Z,35.70
2022-08-26T15:05:39.821Z,35.70
2022-08-26T15:08:28.380Z,35.80
2022-08-26T15:11:18.304Z,35.80
2022-08-26T15:14:08.127Z,35.80
2022-08-26T15:17:07.511Z,35.60
2022-08-26T15:19:55.971Z,35.40
2022-08-26T15:22:44.472Z,35.20
2022-08-26T15:25:33.127Z,35.00
2022-08-26T15:28:21.636Z,34.80
2022-08-26T15:31:12.234Z,34.60
2022-08-26T15:34:02.574Z,34.40
2022-08-26T15:36:51.093Z,34.20
2022-08-26T15:39:40.810Z,34.00
2022-08-26T15:42:29.279Z,33.90
2022-08-26T15:45:24.797Z,33.80
2022-08-26T15:48:16.230Z,33.80
2022-08-26T15:51:05.288Z,33.70
2022-08-26T15:53:56.099Z,33.70
2022-08-26T15:56:44.748Z,33.70
2022-08-26T15:59:33.293Z,33.60
2022-08-26T16:02:22.022Z,33.50
2022-08-26T16:05:12.487Z,33.50
2022-08-26T16:08:01.872Z,33.40
2022-08-26T16:10:51.256Z,33.30
2022-08-26T16:13:40.289Z,33.20
2022-08-26T16:16:28.821Z,33.20
2022-08-26T16:19:17.423Z,33.20
2022-08-26T16:22:09.321Z,33.10
2022-08-26T16:24:58.460Z,33.00
2022-08-26T16:27:46.951Z,32.90
2022-08-26T16:30:35.872Z,32.80
2022-08-26T16:33:29.217Z,32.70
2022-08-26T16:36:18.452Z,32.70
2022-08-26T16:39:08.942Z,32.60
2022-08-26T16:41:57.651Z,32.60
2022-08-26T16:44:46.435Z,32.50
2022-08-26T16:47:34.986Z,32.40
2022-08-26T16:50:24.092Z,32.30
2022-08-26T16:56:08.070Z,32.10
2022-08-26T16:58:56.556Z,32.00
2022-08-26T17:01:45.167Z,31.90
2022-08-26T17:04:33.806Z,31.70
2022-08-26T17:07:22.278Z,31.50
2022-08-26T17:10:12.886Z,31.40
2022-08-26T17:13:02.810Z,31.30
2022-08-26T17:15:55.064Z,31.10
2022-08-26T17:18:48.398Z,31.10
2022-08-26T17:21:37.214Z,30.90
2022-08-26T17:24:25.655Z,30.90
2022-08-26T17:27:14.647Z,30.80
2022-08-26T17:30:05.887Z,30.60
2022-08-26T17:32:54.386Z,30.60
2022-08-26T17:35:42.919Z,30.40
2022-08-26T17:38:31.437Z,30.30
2022-08-26T17:41:19.941Z,30.20
2022-08-26T17:44:09.512Z,30.00
2022-08-26T17:46:59.265Z,29.90
2022-08-26T17:49:47.769Z,29.90
2022-08-26T17:52:36.467Z,29.80
2022-08-26T17:55:24.957Z,29.70
2022-08-26T17:58:14.584Z,29.60
2022-08-26T18:01:04.301Z,29.50
2022-08-26T18:04:00.102Z,29.50
2022-08-26T18:06:49.555Z,29.40
2022-08-26T18:09:38.057Z,29.40
2022-08-26T18:12:26.544Z,29.40
2022-08-26T18:15:18.452Z,29.40
2022-08-26T18:18:07.180Z,29.40
2022-08-26T18:21:01.890Z,29.40
2022-08-26T18:23:50.893Z,29.30
2022-08-26T18:26:41.165Z,29.30
2022-08-26T18:29:29.737Z,29.30
2022-08-26T18:32:18.304Z,29.20
2022-08-26T18:35:08.219Z,29.20
2022-08-26T18:37:58.487Z,29.20
2022-08-26T18:40:59.496Z,29.10
2022-08-26T18:43:48.064Z,29.00
2022-08-26T18:46:36.877Z,29.00
2022-08-26T18:49:25.429Z,28.90
2022-08-26T18:52:13.925Z,28.80
2022-08-26T18:55:04.619Z,28.70
2022-08-26T18:57:53.129Z,28.50
2022-08-26T19:00:41.616Z,28.40
2022-08-26T19:03:30.139Z,28.30
2022-08-26T19:06:20.675Z,28.20
2022-08-26T19:09:11.917Z,28.10
2022-08-26T19:12:05.324Z,28.00
2022-08-26T19:14:54.455Z,27.90
2022-08-26T19:17:42.946Z,27.80
2022-08-26T19:20:31.501Z,27.70
2022-08-26T19:23:31.320Z,27.70
2022-08-26T19:26:20.702Z,27.60
2022-08-26T19:29:10.613Z,27.60
2022-08-26T19:31:58.955Z,27.60
2022-08-26T19:34:47.452Z,27.60
2022-08-26T19:37:35.984Z,27.50
2022-08-26T19:40:25.361Z,27.50
2022-08-26T19:43:13.888Z,27.50
2022-08-26T19:46:09.369Z,27.50
2022-08-26T19:48:58.544Z,27.50
2022-08-26T19:51:47.003Z,27.50
2022-08-26T19:54:36.222Z,27.50
2022-08-26T19:57:24.663Z,27.40
2022-08-26T20:00:15.721Z,27.30
2022-08-26T20:03:05.708Z,27.20
2022-08-26T20:05:54.363Z,27.10
2022-08-26T20:08:43.446Z,26.90
2022-08-26T20:11:32.686Z,26.70
2022-08-26T20:14:23.131Z,26.60
2022-08-26T20:17:11.760Z,26.40
2022-08-26T20:20:33.401Z,26.30
2022-08-26T20:23:22.270Z,26.20
2022-08-26T20:26:10.762Z,26.00
2022-08-26T20:28:59.331Z,25.90
2022-08-26T20:31:47.986Z,25.80
2022-08-26T20:34:36.950Z,25.60
2022-08-26T20:37:26.839Z,25.50
2022-08-26T20:40:15.456Z,25.40
2022-08-26T20:43:05.957Z,25.30
2022-08-26T20:45:54.584Z,25.30
2022-08-26T20:48:43.210Z,25.20
2022-08-26T20:51:32.206Z,25.20
2022-08-26T20:54:27.530Z,25.10
2022-08-26T20:57:16.766Z,25.00
2022-08-26T21:00:07.152Z,25.00
2022-08-26T21:02:56.553Z,24.90
2022-08-26T21:05:45.209Z,24.90
2022-08-26T21:08:33.651Z,24.80
2022-08-26T21:11:23.647Z,24.70
2022-08-26T21:14:15.956Z,24.70
2022-08-26T21:17:05.503Z,24.60
2022-08-26T21:19:54.137Z,24.60
2022-08-26T21:22:42.797Z,24.50
2022-08-26T21:25:31.320Z,24.50
2022-08-26T21:28:21.215Z,24.50
2022-08-26T21:31:11.994Z,24.50
2022-08-26T21:34:00.608Z,24.50
2022-08-26T21:36:49.613Z,24.50
2022-08-26T21:39:38.165Z,24.40
2022-08-26T21:42:28.584Z,24.40
2022-08-26T21:45:18.657Z,24.30
2022-08-26T21:48:07.866Z,24.30
2022-08-26T21:50:57.219Z,24.20
2022-08-26T21:53:45.752Z,24.20
2022-08-26T21:56:36.537Z,24.10
2022-08-26T21:59:25.219Z,24.10
2022-08-26T22:02:15.599Z,24.10
2022-08-26T22:05:04.315Z,24.00
2022-08-26T22:07:52.967Z,24.00
2022-08-26T22:10:41.578Z,24.00
2022-08-26T22:13:31.747Z,23.90
2022-08-26T22:16:20.342Z,23.90
2022-08-26T22:19:17.224Z,23.90
2022-08-26T22:22:06.122Z,23.90
2022-08-26T22:24:54.663Z,23.80
2022-08-26T22:27:43.084Z,23.80
2022-08-26T22:30:31.619Z,23.80
2022-08-26T22:33:20.145Z,23.80
2022-08-26T22:36:16.451Z,23.80
2022-08-26T22:39:05.180Z,23.80
2022-08-26T22:41:55.153Z,23.80
2022-08-26T22:44:44.063Z,23.90
2022-08-26T22:47:32.624Z,23.80
2022-08-26T22:50:24.403Z,23.80
2022-08-26T22:53:14.372Z,23.80
2022-08-26T22:56:03.020Z,23.80
2022-08-26T22:58:51.688Z,23.80
2022-08-26T23:01:42.039Z,23.70
2022-08-26T23:04:30.638Z,23.70
2022-08-26T23:07:19.556Z,23.60
2022-08-26T23:10:10.866Z,23.60
2022-08-26T23:12:59.585Z,23.60
2022-08-26T23:15:48.067Z,23.60
2022-08-26T23:18:36.772Z,23.60
2022-08-26T23:21:25.224Z,23.60
2022-08-26T23:24:13.771Z,23.60
2022-08-26T23:27:03.729Z,23.60
2022-08-26T23:29:52.450Z,23.60
2022-08-26T23:32:40.985Z,23.60
2022-08-26T23:35:28.634Z,23.60
2022-08-26T23:38:17.246Z,23.50
2022-08-26T23:41:05.931Z,23.50
2022-08-26T23:43:55.850Z,23.50
2022-08-26T23:46:44.321Z,23.50
2022-08-26T23:49:33.012Z,23.50
2022-08-26T23:52:39.343Z,23.50
2022-08-26T23:55:27.929Z,23.50
2022-08-26T23:58:16.628Z,23.50
